Thunder radar more information blitzortung!


avis per Pluja more information rain snow radar


Visita la nostra xarxa de llocs de meteo:

Template documentation
and downloads

And another site



Rain From: 15-11-2018 14:00 Until: 23:59 warning for: Rain Level: Orange info button

Pagina Historial Weather Underground text

Diari Resum February 10, 2018 Unitats:  Mètric    Imperial   Tant
« Previous Dia
SegĂźent Dia »
Diari Setmana Mensual Anual Personalitzada
  Maxima: Minima: Media:
Temperatura: -17.8 °C -17.8 °C -14.8 °C
Punt de rosada: -17.8 °C -25.2 °C -21.9 °C
Humitat: Humidity % 24 % 41 %
Wind Speed: 0 km/h 0 km/h 7.2 km/h
RĂ fegues de vent: 0 km/h - -
Vent:- - SSW
Pression baro: 0 hPa 34327.3 hPa -
Precipitacions: 0 mm    
Historical Graphs
 
 
Dades de taula per February 10, 2018
Temps Temperatura Punt de rosada Pression baro Vent Wind Speed RĂ fegues de vent Humitat Rainfall Rate (Hourly)
-17.8 °C -17.8 °C 0 hPa Calm     Humidity % 0 mm
00:01 -15.9 °C -20.4 °C 34395 hPa NNE 6 km/h 6 km/h 56 % 0 mm
00:06 -15.9 °C -20.4 °C 34395 hPa NNW 6 km/h 6 km/h 55 % 0 mm
00:11 -15.9 °C -20.3 °C 34395 hPa NNE 11.9 km/h 11.9 km/h 56 % 0 mm
00:16 -15.9 °C -20.4 °C 34395 hPa WNW 6 km/h 6 km/h 56 % 0 mm
00:21 -16 °C -20.4 °C 34395 hPa WNW 6 km/h 6 km/h 56 % 0 mm
00:26 -16 °C -20.6 °C 34395 hPa WSW 9 km/h 9 km/h 55 % 0 mm
00:31 -16 °C -20.4 °C 34395 hPa WSW 6 km/h 6 km/h 56 % 0 mm
00:36 -16.1 °C -20.4 °C 34395 hPa WSW 6 km/h 6 km/h 56 % 0 mm
00:41 -16.1 °C -20.5 °C 34395 hPa Calm     56 % 0 mm
00:46 -16.2 °C -20.6 °C 34395 hPa SSE 6.3 km/h 6.3 km/h 56 % 0 mm
00:51 -16.3 °C -20.6 °C 34395 hPa SSE 5.1 km/h 5.1 km/h 57 % 0 mm
00:56 -16.3 °C -20.6 °C 34395 hPa Calm     57 % 0 mm
01:01 -16.1 °C -20.4 °C 34395 hPa NE 6 km/h 6 km/h 57 % 0 mm
01:06 -16.2 °C -20.4 °C 34395 hPa NNE 9 km/h 9 km/h 57 % 0 mm
01:11 -16.2 °C -20.5 °C 34395 hPa NNW 9.3 km/h 9.3 km/h 57 % 0 mm
01:16 -16.2 °C -20.4 °C 34361.1 hPa North 11.9 km/h 11.9 km/h 57 % 0 mm
01:21 -16.1 °C -20.2 °C 34361.1 hPa SW 11.9 km/h 11.9 km/h 58 % 0 mm
01:26 -16 °C -20.3 °C 34361.1 hPa North 11.9 km/h 11.9 km/h 57 % 0 mm
01:31 -15.9 °C -20.2 °C 34395 hPa NE 11.9 km/h 11.9 km/h 57 % 0 mm
01:36 -15.7 °C -20.1 °C 34395 hPa NE 6 km/h 6 km/h 57 % 0 mm
01:41 -15.8 °C -20.1 °C 34395 hPa NNE 9 km/h 9 km/h 57 % 0 mm
01:46 -16 °C -20.3 °C 34395 hPa ENE 6 km/h 6 km/h 57 % 0 mm
01:51 -16.1 °C -20.3 °C 34395 hPa NNE 6.3 km/h 6.3 km/h 57 % 0 mm
01:56 -16.1 °C -20.4 °C 34395 hPa SSW 5.1 km/h 5.1 km/h 57 % 0 mm
02:01 -16.2 °C -20.4 °C 34395 hPa WSW 6.3 km/h 6.8 km/h 57 % 0 mm
02:06 -16.2 °C -20.4 °C 34395 hPa WSW 3.1 km/h 3.7 km/h 58 % 0 mm
02:11 -16.3 °C -20.4 °C 34395 hPa ENE 6 km/h 6 km/h 58 % 0 mm
02:16 -16.3 °C -20.4 °C 34395 hPa NNW 3.1 km/h 3.1 km/h 58 % 0 mm
02:21 -16.4 °C -20.5 °C 34395 hPa WNW 5.1 km/h 5.1 km/h 58 % 0 mm
02:26 -16.4 °C -20.5 °C 34395 hPa WSW 9 km/h 9 km/h 58 % 0 mm
02:31 -16.6 °C -20.7 °C 34395 hPa WSW 6 km/h 6 km/h 58 % 0 mm
02:36 -16.6 °C -20.6 °C 34395 hPa WSW 6 km/h 6 km/h 59 % 0 mm
02:41 -16.6 °C -20.6 °C 34395 hPa SW 6 km/h 6 km/h 59 % 0 mm
02:46 -16.7 °C -20.7 °C 34361.1 hPa WSW 6 km/h 6 km/h 59 % 0 mm
02:51 -16.7 °C -20.6 °C 34361.1 hPa WSW 4.2 km/h   60 % 0 mm
03:01 -16.8 °C -20.5 °C 34361.1 hPa Calm     61 % 0 mm
03:06 -16.8 °C -20.6 °C 34361.1 hPa Calm     61 % 0 mm
03:11 -16.8 °C -20.6 °C 34361.1 hPa WNW 6 km/h 6 km/h 61 % 0 mm
03:16 -16.8 °C -20.6 °C 34395 hPa NNE 3.7 km/h 3.7 km/h 61 % 0 mm
03:21 -16.8 °C -20.6 °C 34395 hPa WNW 6 km/h 6 km/h 61 % 0 mm
03:26 -16.8 °C -20.6 °C 34395 hPa Calm     61 % 0 mm
03:31 -16.8 °C -20.4 °C 34395 hPa NNE 6 km/h 6 km/h 62 % 0 mm
03:36 -16.9 °C -20.6 °C 34395 hPa NE 3.1 km/h 3.1 km/h 62 % 0 mm
03:41 -16.9 °C -20.6 °C 34395 hPa WNW 6 km/h 6 km/h 62 % 0 mm
03:46 -16.9 °C -20.5 °C 34395 hPa NNW 3.1 km/h   62 % 0 mm
03:51 -16.9 °C -20.5 °C 34395 hPa WNW 6 km/h 6 km/h 62 % 0 mm
03:56 -16.8 °C -20.4 °C 34395 hPa NNE 6 km/h 6 km/h 62 % 0 mm
04:01 -16.9 °C -20.6 °C 34395 hPa SW 6 km/h 6 km/h 61 % 0 mm
04:06 -17 °C -20.7 °C 34395 hPa WSW 6 km/h 6 km/h 61 % 0 mm
04:11 -17.1 °C -20.7 °C 34395 hPa Calm     62 % 0 mm
04:16 -17.1 °C -20.7 °C 34395 hPa Calm     62 % 0 mm
04:21 -17.2 °C -20.8 °C 34395 hPa WSW 6 km/h   62 % 0 mm
04:26 -17.2 °C -20.8 °C 34395 hPa SW 4.2 km/h 4.2 km/h 62 % 0 mm
04:31 -17.2 °C -20.9 °C 34395 hPa WSW 6.3 km/h 6.3 km/h 61 % 0 mm
04:36 -17.2 °C -20.8 °C 34395 hPa SW 6.3 km/h 6.3 km/h 62 % 0 mm
04:41 -17.3 °C -20.9 °C 34395 hPa ESE 3.1 km/h 3.1 km/h 62 % 0 mm
04:46 -17.4 °C -20.9 °C 34395 hPa SW 3.1 km/h   63 % 0 mm
04:51 -17.4 °C -21 °C 34395 hPa SW 3.1 km/h   62 % 0 mm
04:56 -17.4 °C -20.9 °C 34395 hPa Calm     63 % 0 mm
05:01 -17.4 °C -20.9 °C 34395 hPa NE 6 km/h 6 km/h 63 % 0 mm
05:06 -17.6 °C -21 °C 34395 hPa NE 6 km/h 6 km/h 63 % 0 mm
05:11 -17.6 °C -21.1 °C 34395 hPa West 6 km/h 6 km/h 63 % 0 mm
05:16 -17.7 °C -21.1 °C 34361.1 hPa WNW 6 km/h 6 km/h 63 % 0 mm
05:21 -17.7 °C -21.1 °C 34361.1 hPa WNW 3.1 km/h   63 % 0 mm
05:26 -17.7 °C -21.2 °C 34361.1 hPa WSW 6 km/h 6 km/h 63 % 0 mm
05:31 -17.8 °C -21.2 °C 34361.1 hPa Calm     63 % 0 mm
05:36 -17.8 °C -21.2 °C 34361.1 hPa Calm     64 % 0 mm
05:41 -17.8 °C -21.1 °C 34361.1 hPa NW 6 km/h 6 km/h 64 % 0 mm
05:46 -17.6 °C -21.2 °C 34395 hPa North 6 km/h 6 km/h 62 % 0 mm
05:51 -17.4 °C -21.1 °C 34395 hPa NNE 4.2 km/h 4.2 km/h 61 % 0 mm
05:56 -17.1 °C -20.9 °C 34395 hPa NNE 11.9 km/h 11.9 km/h 60 % 0 mm
06:01 -16.9 °C -20.9 °C 34395 hPa NNE 6 km/h 6 km/h 59 % 0 mm
06:06 -16.9 °C -21.1 °C 34395 hPa WSW 9.3 km/h 9.3 km/h 58 % 0 mm
06:11 -17.3 °C -21.3 °C 34395 hPa West 6 km/h 6 km/h 58 % 0 mm
06:16 -17.5 °C -21.4 °C 34395 hPa WSW 6.8 km/h 6.8 km/h 59 % 0 mm
06:21 -17.4 °C -21.4 °C 34395 hPa WSW 9 km/h 9 km/h 59 % 0 mm
06:26 -17.4 °C -21.5 °C 34395 hPa West 3.1 km/h 3.1 km/h 58 % 0 mm
06:31 -17.4 °C -21.4 °C 34395 hPa NNW 6 km/h 6 km/h 58 % 0 mm
06:36 -17.3 °C -21.5 °C 34395 hPa NNE 6.3 km/h 6.3 km/h 57 % 0 mm
06:41 -17.1 °C -21.4 °C 34395 hPa WNW 3.1 km/h   56 % 0 mm
06:46 -17 °C -21.5 °C 34395 hPa ENE 6 km/h 6 km/h 55 % 0 mm
06:51 -17 °C -21.5 °C 34395 hPa WNW 6 km/h   55 % 0 mm
06:56 -16.9 °C -21.5 °C 34395 hPa ENE 5.1 km/h 5.1 km/h 54 % 0 mm
07:01 -16.9 °C -21.7 °C 34395 hPa NE 9 km/h 9 km/h 53 % 0 mm
07:06 -17.3 °C -21.9 °C 34395 hPa East 9 km/h 9 km/h 54 % 0 mm
07:11 -17.5 °C -21.9 °C 34395 hPa NNE 6 km/h 6 km/h 55 % 0 mm
07:16 -17.5 °C -21.9 °C 34395 hPa WNW 4.2 km/h 4.2 km/h 55 % 0 mm
07:21 -17.4 °C -21.9 °C 34395 hPa West 9 km/h 9 km/h 55 % 0 mm
07:26 -17.4 °C -21.9 °C 34395 hPa WSW 9 km/h 9 km/h 55 % 0 mm
07:31 -17.5 °C -21.9 °C 34361.1 hPa West 11.9 km/h 11.9 km/h 55 % 0 mm
07:36 -17.4 °C -21.9 °C 34361.1 hPa ENE 3.1 km/h 3.1 km/h 55 % 0 mm
07:41 -17.3 °C -21.9 °C 34361.1 hPa ESE 9 km/h 9 km/h 54 % 0 mm
07:46 -17.4 °C -22.1 °C 34395 hPa NNE 15 km/h 15 km/h 54 % 0 mm
07:51 -17.4 °C -21.9 °C 34395 hPa ESE 3.7 km/h 3.7 km/h 55 % 0 mm
07:56 -17.3 °C -21.9 °C 34395 hPa Calm     54 % 0 mm
08:01 -17.2 °C -21.8 °C 34395 hPa WNW 11.9 km/h 11.9 km/h 54 % 0 mm
08:06 -17.2 °C -21.8 °C 34395 hPa West 6 km/h 6 km/h 54 % 0 mm
08:11 -16.9 °C -21.6 °C 34395 hPa NW 9 km/h 9 km/h 54 % 0 mm
08:16 -16.9 °C -21.6 °C 34395 hPa WNW 11.9 km/h 11.9 km/h 53 % 0 mm
08:21 -16.8 °C -21.7 °C 34395 hPa NNW 6 km/h 6 km/h 52 % 0 mm
08:26 -16.7 °C -21.6 °C 34395 hPa WSW 3.1 km/h   52 % 0 mm
08:31 -16.6 °C -21.6 °C 34395 hPa ENE 6.3 km/h 6.3 km/h 51 % 0 mm
08:36 -16.6 °C -21.6 °C 34395 hPa East 9 km/h 9 km/h 51 % 0 mm
08:41 -16.6 °C -21.5 °C 34395 hPa NNE 7.6 km/h 7.6 km/h 52 % 0 mm
08:46 -16.6 °C -21.5 °C 34395 hPa NNE 3.1 km/h   52 % 0 mm
08:51 -16.3 °C -21.2 °C 34395 hPa NNE 3.1 km/h   52 % 0 mm
08:56 -16.2 °C -21.1 °C 34395 hPa WSW 3.1 km/h   52 % 0 mm
09:01 -15.8 °C -20.7 °C 34428.8 hPa ENE 5.1 km/h   52 % 0 mm
09:06 -15.7 °C -20.8 °C 34428.8 hPa East 6 km/h 6 km/h 51 % 0 mm
09:11 -15.7 °C -20.8 °C 34428.8 hPa NNE 11.1 km/h 11.1 km/h 51 % 0 mm
09:16 -15.7 °C -20.8 °C 34428.8 hPa NE 4.2 km/h 4.2 km/h 51 % 0 mm
09:21 -15.6 °C -20.7 °C 34428.8 hPa ESE 3.1 km/h   51 % 0 mm
09:26 -15.3 °C -20.4 °C 34428.8 hPa Calm     51 % 0 mm
09:31 -15.3 °C -20.5 °C 34428.8 hPa WSW 6.3 km/h 6.3 km/h 51 % 0 mm
09:36 -15.4 °C -20.6 °C 34428.8 hPa WSW 6.3 km/h 6.3 km/h 51 % 0 mm
09:41 -15.6 °C -20.7 °C 34428.8 hPa WSW 6 km/h 6 km/h 51 % 0 mm
09:46 -15.3 °C -20.4 °C 34395 hPa SW 6.3 km/h 6.3 km/h 51 % 0 mm
09:51 -15.2 °C -20.3 °C 34395 hPa SW 6 km/h 6 km/h 51 % 0 mm
09:56 -15.1 °C -20.4 °C 34395 hPa WSW 7.6 km/h 7.6 km/h 50 % 0 mm
10:01 -15 °C -20.3 °C 34395 hPa WSW 6 km/h 6 km/h 50 % 0 mm
10:06 -14.8 °C -20.3 °C 34395 hPa WNW 20.9 km/h 20.9 km/h 49 % 0 mm
10:11 -14.4 °C -20.2 °C 34395 hPa WSW 15 km/h 15 km/h 47 % 0 mm
10:16 -14.2 °C -20.2 °C 34395 hPa NE 15 km/h 15 km/h 46 % 0 mm
10:21 -14.2 °C -20.4 °C 34395 hPa East 15.6 km/h 15.6 km/h 45 % 0 mm
10:26 -14.1 °C -20.6 °C 34395 hPa East 16.1 km/h 16.1 km/h 43 % 0 mm
10:31 -14.3 °C -20.8 °C 34395 hPa ESE 15 km/h 15 km/h 43 % 0 mm
10:36 -14.2 °C -20.7 °C 34395 hPa ESE 10.3 km/h 10.3 km/h 43 % 0 mm
10:41 -13.9 °C -20.8 °C 34395 hPa NNE 6.8 km/h 6.8 km/h 41 % 0 mm
10:46 -13.9 °C -20.4 °C 34395 hPa NW 6.8 km/h 6.8 km/h 43 % 0 mm
10:51 -13.8 °C -20.5 °C 34395 hPa NNW 17.9 km/h 17.9 km/h 42 % 0 mm
10:56 -13.6 °C -20.4 °C 34395 hPa ENE 11.9 km/h 11.9 km/h 41 % 0 mm
11:01 -13.4 °C -20.3 °C 34428.8 hPa West 9 km/h 9 km/h 41 % 0 mm
11:06 -13.3 °C -20.2 °C 34428.8 hPa SW 23.8 km/h 23.8 km/h 41 % 0 mm
11:11 -13.3 °C -20.4 °C 34428.8 hPa West 11.9 km/h 11.9 km/h 40 % 0 mm
11:16 -13.4 °C -20.7 °C 34395 hPa West 15 km/h 15 km/h 39 % 0 mm
11:21 -13.3 °C -20.6 °C 34395 hPa West 15 km/h 15 km/h 39 % 0 mm
11:26 -13.2 °C -20.7 °C 34395 hPa SSW 11.9 km/h 11.9 km/h 38 % 0 mm
11:31 -13.1 °C -20.6 °C 34395 hPa WSW 15 km/h 15 km/h 38 % 0 mm
11:36 -13.1 °C -20.9 °C 34395 hPa ENE 9 km/h 9 km/h 36 % 0 mm
11:41 -12.9 °C -20.9 °C 34395 hPa NNW 9.3 km/h 9.3 km/h 36 % 0 mm
11:46 -13 °C -20.9 °C 34395 hPa WNW 15 km/h 15 km/h 36 % 0 mm
11:51 -12.8 °C -21 °C 34395 hPa NNE 20.9 km/h 20.9 km/h 35 % 0 mm
11:56 -12.8 °C -21 °C 34395 hPa ENE 11.9 km/h 11.9 km/h 35 % 0 mm
12:01 -12.8 °C -21.2 °C 34395 hPa SSW 9.8 km/h 9.8 km/h 34 % 0 mm
12:06 -12.8 °C -21.2 °C 34395 hPa NNE 15 km/h 15 km/h 34 % 0 mm
12:11 -12.7 °C -21.3 °C 34395 hPa SW 9 km/h 9 km/h 33 % 0 mm
12:16 -12.6 °C -21 °C 34395 hPa NW 9.3 km/h 9.3 km/h 34 % 0 mm
12:21 -12.6 °C -21.2 °C 34395 hPa NW 12.7 km/h 12.7 km/h 33 % 0 mm
12:26 -12.7 °C -21.5 °C 34395 hPa WSW 11.9 km/h 11.9 km/h 32 % 0 mm
12:31 -12.5 °C -21.1 °C 34395 hPa WNW 11.9 km/h 11.9 km/h 33 % 0 mm
12:36 -12.5 °C -21.1 °C 34395 hPa SW 15 km/h 15 km/h 33 % 0 mm
12:41 -12.4 °C -21.3 °C 34395 hPa NNW 9 km/h 9 km/h 32 % 0 mm
12:46 -12.3 °C -20.9 °C 34395 hPa WNW 15 km/h 15 km/h 33 % 0 mm
12:51 -12.2 °C -20.9 °C 34395 hPa ENE 15 km/h 15 km/h 33 % 0 mm
12:56 -12.2 °C -21.1 °C 34395 hPa West 6.8 km/h 6.8 km/h 32 % 0 mm
13:01 -12.1 °C -20.8 °C 34361.1 hPa West 8.5 km/h 8.5 km/h 33 % 0 mm
13:06 -12 °C -20.9 °C 34361.1 hPa West 6 km/h 6 km/h 32 % 0 mm
13:11 -12.1 °C -20.9 °C 34361.1 hPa WNW 9 km/h 9 km/h 32 % 0 mm
13:16 -12.1 °C -21.2 °C 34361.1 hPa North 17.9 km/h 17.9 km/h 31 % 0 mm
13:21 -12.1 °C -21.2 °C 34361.1 hPa WSW 11.9 km/h 11.9 km/h 31 % 0 mm
13:26 -12.1 °C -21.2 °C 34361.1 hPa WNW 17.9 km/h 17.9 km/h 31 % 0 mm
13:31 -11.9 °C -21.1 °C 34361.1 hPa WNW 26.9 km/h 26.9 km/h 31 % 0 mm
13:36 -12 °C -21.3 °C 34361.1 hPa WSW 9 km/h 9 km/h 30 % 0 mm
13:41 -11.9 °C -21.3 °C 34361.1 hPa East 15 km/h 15 km/h 30 % 0 mm
13:46 -12.2 °C -21.8 °C 34327.3 hPa ENE 9 km/h 11.1 km/h 29 % 0 mm
13:51 -12.2 °C -21.8 °C 34327.3 hPa NNW 9 km/h 9 km/h 29 % 0 mm
13:56 -11.9 °C -21.3 °C 34327.3 hPa WNW 6 km/h 6 km/h 30 % 0 mm
14:01 -11.9 °C -21.5 °C 34327.3 hPa West 6 km/h 6 km/h 29 % 0 mm
14:06 -12 °C -21.6 °C 34327.3 hPa NNE 12.7 km/h 12.7 km/h 29 % 0 mm
14:11 -12.1 °C -21.9 °C 34327.3 hPa NNE 15 km/h 15 km/h 28 % 0 mm
14:16 -11.9 °C -21.5 °C 34327.3 hPa NNW 6 km/h 6 km/h 29 % 0 mm
14:21 -11.8 °C -21.5 °C 34327.3 hPa NNE 15 km/h 15 km/h 29 % 0 mm
14:26 -11.9 °C -21.8 °C 34327.3 hPa NNE 29 km/h 29 km/h 28 % 0 mm
14:31 -11.9 °C -22.3 °C 34327.3 hPa ENE 23.8 km/h 23.8 km/h 26 % 0 mm
14:36 -11.9 °C -22.3 °C 34327.3 hPa NNE 17.9 km/h 17.9 km/h 26 % 0 mm
14:41 -11.8 °C -21.9 °C 34327.3 hPa WNW 6 km/h 6 km/h 27 % 0 mm
14:46 -11.8 °C -22 °C 34327.3 hPa NE 11.9 km/h 11.9 km/h 27 % 0 mm
14:51 -11.8 °C -22.3 °C 34327.3 hPa NE 26.9 km/h 26.9 km/h 26 % 0 mm
14:56 -11.7 °C -22.2 °C 34327.3 hPa East 11.9 km/h 11.9 km/h 26 % 0 mm
15:01 -11.7 °C -21.9 °C 34327.3 hPa South 15 km/h 15 km/h 27 % 0 mm
15:06 -11.6 °C -21.8 °C 34327.3 hPa NNW 9 km/h 9 km/h 27 % 0 mm
15:11 -11.6 °C -21.8 °C 34327.3 hPa NNW 11.9 km/h 11.9 km/h 27 % 0 mm
15:16 -11.6 °C -21.5 °C 34327.3 hPa NW 6 km/h 6.3 km/h 28 % 0 mm
15:21 -11.6 °C -21.8 °C 34327.3 hPa NNW 4.2 km/h 4.2 km/h 27 % 0 mm
15:26 -11.6 °C -22.1 °C 34327.3 hPa SSE 8.5 km/h 8.5 km/h 26 % 0 mm
15:31 -11.6 °C -21.8 °C 34327.3 hPa North 9 km/h 9 km/h 27 % 0 mm
15:36 -11.6 °C -21.8 °C 34327.3 hPa WNW 9 km/h 9 km/h 27 % 0 mm
15:41 -11.4 °C -21.3 °C 34327.3 hPa NNE 9 km/h 9 km/h 28 % 0 mm
15:46 -11.6 °C -22 °C 34327.3 hPa NNE 3.1 km/h 3.1 km/h 26 % 0 mm
15:51 -11.7 °C -22.4 °C 34327.3 hPa ESE 9 km/h 9 km/h 25 % 0 mm
15:56 -11.8 °C -22.5 °C 34327.3 hPa ENE 9 km/h 9 km/h 25 % 0 mm
16:01 -11.7 °C -22.2 °C 34327.3 hPa ENE 11.9 km/h 11.9 km/h 26 % 0 mm
16:06 -11.5 °C -22 °C 34327.3 hPa NW 9 km/h 9 km/h 26 % 0 mm
16:11 -11.6 °C -22 °C 34327.3 hPa North 6 km/h 6 km/h 26 % 0 mm
16:16 -11.7 °C -22.1 °C 34327.3 hPa North 10.3 km/h 10.3 km/h 26 % 0 mm
16:21 -11.7 °C -22.4 °C 34327.3 hPa NNW 6 km/h 6 km/h 25 % 0 mm
16:26 -11.7 °C -22.4 °C 34327.3 hPa NNE 17.4 km/h 17.4 km/h 25 % 0 mm
16:31 -11.8 °C -22.5 °C 34327.3 hPa WNW 8.5 km/h 8.5 km/h 25 % 0 mm
16:36 -11.8 °C -22.5 °C 34327.3 hPa NW 6.8 km/h 6.8 km/h 25 % 0 mm
16:41 -11.8 °C -22.5 °C 34327.3 hPa NW 6 km/h 6 km/h 25 % 0 mm
16:46 -11.8 °C -22.5 °C 34327.3 hPa NNW 6 km/h 6 km/h 25 % 0 mm
16:51 -11.8 °C -22.2 °C 34327.3 hPa NNW 6.3 km/h 6.3 km/h 26 % 0 mm
16:56 -11.8 °C -22.5 °C 34327.3 hPa ESE 6 km/h 6 km/h 25 % 0 mm
17:01 -11.8 °C -22.2 °C 34327.3 hPa WNW 6.3 km/h 6.3 km/h 26 % 0 mm
17:06 -11.7 °C -22.1 °C 34327.3 hPa WNW 5.6 km/h   26 % 0 mm
17:11 -11.7 °C -22.2 °C 34327.3 hPa WNW 6 km/h 6 km/h 26 % 0 mm
17:16 -11.8 °C -22.5 °C 34327.3 hPa WNW 6 km/h 6 km/h 25 % 0 mm
17:21 -11.7 °C -22.4 °C 34327.3 hPa NW 6 km/h 6 km/h 25 % 0 mm
17:26 -11.7 °C -22.4 °C 34327.3 hPa WNW 3.7 km/h 3.7 km/h 25 % 0 mm
17:31 -11.8 °C -22.8 °C 34327.3 hPa Calm     24 % 0 mm
17:36 -11.7 °C -22.4 °C 34327.3 hPa WNW 3.7 km/h 4.2 km/h 25 % 0 mm
17:41 -11.6 °C -22 °C 34327.3 hPa SW 5.6 km/h 5.6 km/h 26 % 0 mm
17:46 -11.7 °C -22.1 °C 34361.1 hPa WNW 15 km/h 15 km/h 26 % 0 mm
17:51 -11.8 °C -21.9 °C 34361.1 hPa WSW 15.3 km/h 15.3 km/h 27 % 0 mm
17:56 -11.9 °C -22.1 °C 34361.1 hPa WSW 9 km/h 9 km/h 27 % 0 mm
18:01 -12.1 °C -22.5 °C 34361.1 hPa SSW 6 km/h 6.3 km/h 26 % 0 mm
18:06 -12.3 °C -22.4 °C 34361.1 hPa WSW 9 km/h 9 km/h 27 % 0 mm
18:11 -12.4 °C -22.5 °C 34361.1 hPa WSW 11.9 km/h 11.9 km/h 27 % 0 mm
18:16 -12.6 °C -22.6 °C 34361.1 hPa SW 9.3 km/h 9.3 km/h 27 % 0 mm
18:21 -12.7 °C -22.9 °C 34361.1 hPa SW 15 km/h 15 km/h 26 % 0 mm
18:26 -12.7 °C -23 °C 34361.1 hPa WSW 11.9 km/h 11.9 km/h 26 % 0 mm
18:31 -12.8 °C -23.1 °C 34361.1 hPa WSW 11.1 km/h 11.1 km/h 26 % 0 mm
18:36 -12.9 °C -23.5 °C 34361.1 hPa NE 9 km/h 9 km/h 25 % 0 mm
18:41 -13.1 °C -23.6 °C 34361.1 hPa NNE 5.6 km/h 5.6 km/h 25 % 0 mm
18:46 -13.3 °C -23.8 °C 34361.1 hPa ENE 6 km/h 6 km/h 25 % 0 mm
18:51 -13.4 °C -23.8 °C 34361.1 hPa NW 6 km/h 6 km/h 25 % 0 mm
18:56 -13.4 °C -23.8 °C 34361.1 hPa North 3.1 km/h 3.1 km/h 25 % 0 mm
19:01 -13.4 °C -23.9 °C 34395 hPa ENE 6 km/h 6 km/h 25 % 0 mm
19:06 -13.6 °C -23.7 °C 34395 hPa North 3.1 km/h 3.1 km/h 26 % 0 mm
19:11 -13.7 °C -23.6 °C 34395 hPa NW 4.2 km/h 4.2 km/h 27 % 0 mm
19:16 -13.7 °C -23.6 °C 34395 hPa NNE 9.8 km/h 9.8 km/h 27 % 0 mm
19:17 -13.7 °C -23.6 °C 34395 hPa ENE 9 km/h 9 km/h 27 % 0 mm
19:22 -13.7 °C -23.3 °C 34395 hPa ENE 6 km/h 6 km/h 28 % 0 mm
19:27 -13.7 °C -23.4 °C 34395 hPa WNW 3.1 km/h 3.1 km/h 28 % 0 mm
19:32 -13.8 °C -23.4 °C 34395 hPa WNW 3.1 km/h   28 % 0 mm
19:37 -13.9 °C -23.2 °C 34395 hPa NNE 6 km/h 6 km/h 29 % 0 mm
19:42 -14 °C -23.4 °C 34428.8 hPa North 2.3 km/h   29 % 0 mm
19:47 -14.1 °C -23.4 °C 34428.8 hPa Calm     29 % 0 mm
19:52 -14.2 °C -23.5 °C 34428.8 hPa Calm     29 % 0 mm
19:57 -14.2 °C -23.6 °C 34395 hPa Calm     29 % 0 mm
20:02 -14.3 °C -23.4 °C 34395 hPa Calm     30 % 0 mm
20:07 -14.3 °C -23.4 °C 34395 hPa Calm     30 % 0 mm
20:12 -14.4 °C -23.4 °C 34395 hPa WNW 3.1 km/h 3.1 km/h 30 % 0 mm
20:17 -14.4 °C -23.5 °C 34395 hPa Calm     30 % 0 mm
20:22 -14.5 °C -23.6 °C 34395 hPa Calm     30 % 0 mm
20:27 -14.5 °C -23.6 °C 34395 hPa WNW 3.1 km/h 3.1 km/h 30 % 0 mm
20:32 -14.7 °C -23.5 °C 34395 hPa WSW 6.8 km/h 6.8 km/h 31 % 0 mm
20:37 -14.8 °C -23.6 °C 34395 hPa West 6 km/h 6 km/h 31 % 0 mm
20:42 -14.7 °C -23.4 °C 34395 hPa West 4.2 km/h 4.2 km/h 31 % 0 mm
20:47 -14.6 °C -23.7 °C 34395 hPa West 6 km/h 6 km/h 30 % 0 mm
20:52 -14.6 °C -23.7 °C 34395 hPa WSW 8 km/h 8 km/h 30 % 0 mm
20:57 -14.6 °C -23.6 °C 34395 hPa West 3.1 km/h   30 % 0 mm
21:02 -14.7 °C -23.7 °C 34395 hPa Calm     30 % 0 mm
21:07 -14.9 °C -23.9 °C 34395 hPa Calm     30 % 0 mm
21:12 -15 °C -24 °C 34395 hPa NW 3.1 km/h 3.1 km/h 30 % 0 mm
21:17 -14.9 °C -23.9 °C 34395 hPa West 6 km/h 6 km/h 30 % 0 mm
21:22 -15 °C -24 °C 34395 hPa West 3.1 km/h   30 % 0 mm
21:27 -15.2 °C -24.1 °C 34395 hPa ESE 6 km/h 6 km/h 30 % 0 mm
21:32 -15.3 °C -24.3 °C 34395 hPa SW 6 km/h 6 km/h 30 % 0 mm
21:37 -15.7 °C -24.6 °C 34395 hPa WSW 3.1 km/h   30 % 0 mm
21:42 -15.7 °C -24.6 °C 34395 hPa NNW 3.7 km/h   30 % 0 mm
21:47 -15.8 °C -24.7 °C 34395 hPa NE 6 km/h 6 km/h 30 % 0 mm
21:52 -15.8 °C -24.7 °C 34395 hPa WNW 3.1 km/h 3.1 km/h 30 % 0 mm
21:57 -16 °C -24.6 °C 34395 hPa SSE 3.1 km/h   31 % 0 mm
22:02 -16 °C -24.6 °C 34395 hPa NNE 3.1 km/h 3.1 km/h 31 % 0 mm
22:07 -16.1 °C -24.7 °C 34395 hPa WNW 3.7 km/h 3.7 km/h 31 % 0 mm
22:12 -16.1 °C -24.7 °C 34395 hPa WNW 3.1 km/h 3.1 km/h 31 % 0 mm
22:17 -16.1 °C -24.7 °C 34395 hPa WNW 6 km/h 6 km/h 31 % 0 mm
22:22 -16.1 °C -24.7 °C 34395 hPa WNW 3.1 km/h 3.7 km/h 31 % 0 mm
22:27 -16.1 °C -24.7 °C 34395 hPa NE 3.1 km/h 3.1 km/h 31 % 0 mm
22:32 -16.1 °C -24.7 °C 34395 hPa WSW 6 km/h 6 km/h 31 % 0 mm
22:37 -16.3 °C -24.9 °C 34395 hPa WSW 3.1 km/h 3.1 km/h 31 % 0 mm
22:42 -16.2 °C -24.8 °C 34428.8 hPa WSW 4.2 km/h 4.2 km/h 31 % 0 mm
22:47 -16.3 °C -24.9 °C 34428.8 hPa Calm     31 % 0 mm
22:52 -16.3 °C -24.9 °C 34428.8 hPa Calm     31 % 0 mm
22:57 -16.3 °C -24.7 °C 34428.8 hPa WSW 6 km/h 6 km/h 32 % 0 mm
23:02 -16.4 °C -25.1 °C 34428.8 hPa West 6 km/h 6 km/h 31 % 0 mm
23:07 -16.3 °C -24.9 °C 34428.8 hPa WNW 6 km/h 6 km/h 31 % 0 mm
23:12 -16.3 °C -24.9 °C 34428.8 hPa WNW 3.1 km/h   31 % 0 mm
23:17 -16.3 °C -24.9 °C 34428.8 hPa Calm     31 % 0 mm
23:22 -16.3 °C -24.7 °C 34428.8 hPa WNW 3.7 km/h 3.7 km/h 32 % 0 mm
23:27 -16.3 °C -24.7 °C 34428.8 hPa NW 4.2 km/h 4.2 km/h 32 % 0 mm
23:32 -16.3 °C -24.7 °C 34428.8 hPa Calm     32 % 0 mm
23:37 -16.3 °C -24.9 °C 34428.8 hPa ENE 6 km/h 6 km/h 31 % 0 mm
23:42 -16.4 °C -24.8 °C 34428.8 hPa SW 5.6 km/h 5.6 km/h 32 % 0 mm
23:47 -16.7 °C -25.1 °C 34428.8 hPa WSW 6.3 km/h 6.3 km/h 32 % 0 mm
23:52 -16.9 °C -25.2 °C 34428.8 hPa WSW 6.8 km/h 6.8 km/h 32 % 0 mm
23:57 -16.9 °C -25.2 °C 34428.8 hPa WNW 6 km/h 6 km/h 32 % 0 mm
Meteo Sesrovires
Elogis d' Weather Underground - 1.75 mb

Guio original per  Jim McMurry - jmcmurry@mwt.net Adaptat per a la plantilla per  Wim van der Kuil - Leuven-Template.eu

Trobareu la nostra informacio del temps tambe a:

Weather Underground

AWEKAS